Ridgeland, Wisconsin
Current Conditions -  °F | °C
As of 9:35 AM on Saturday 25 Oct 2014 (Local Time) from KY23 Reporting Station
Clear Clear  
Wind Chill: 52°   Ceiling: Unl
Heat Index: 52°   Visibility: 10mi
Dew Point: 37°   Wind: 10mph
Humidity: 56%   Direction: 280°W
Pressure: 29.97"   Gusts: NA
Location:  45.2°N, 91.9°W
Report Text: KY23 251435Z AUTO 28009KT 10SM CLR 11/03 A2997 RMK AO2 T01090025
Loading
Personal Weather Stations






























Interactive Weather Map
Tropical Storm Tracking
New forecast layout! Learn more

10-Day Weather Forecast

Advertisements
Track Severe Weather on mobile